createdAt,value
2018-03-31T00:01:37.877Z,6.00
2018-03-31T00:04:04.781Z,5.40
2018-03-31T00:06:30.939Z,5.50
2018-03-31T00:08:57.090Z,5.50
2018-03-31T00:11:24.002Z,5.37
2018-03-31T00:13:50.137Z,5.60
2018-03-31T00:16:16.294Z,5.30
2018-03-31T00:18:43.198Z,5.40
2018-03-31T00:21:09.326Z,5.00
2018-03-31T00:23:35.481Z,5.30
2018-03-31T00:26:02.390Z,5.03
2018-03-31T00:28:28.517Z,4.40
2018-03-31T00:30:54.715Z,4.15
2018-03-31T00:33:20.935Z,4.60
2018-03-31T00:35:47.109Z,5.20
2018-03-31T00:38:13.267Z,4.20
2018-03-31T00:40:40.180Z,4.35
2018-03-31T00:43:06.348Z,4.25
2018-03-31T00:45:33.263Z,4.70
2018-03-31T00:47:59.422Z,4.07
2018-03-31T00:50:26.290Z,4.40
2018-03-31T00:52:52.439Z,3.95
2018-03-31T00:55:18.635Z,4.22
2018-03-31T00:57:45.512Z,4.12
2018-03-31T01:00:11.661Z,4.10
2018-03-31T01:02:37.827Z,3.85
2018-03-31T01:05:04.702Z,4.07
2018-03-31T01:07:30.857Z,3.80
2018-03-31T01:09:57.019Z,3.87
2018-03-31T01:12:23.155Z,4.47
2018-03-31T01:14:50.054Z,4.10
2018-03-31T01:17:16.216Z,4.00
2018-03-31T01:19:42.353Z,3.80
2018-03-31T01:22:09.267Z,3.90
2018-03-31T01:24:35.430Z,3.53
2018-03-31T01:27:02.300Z,3.40
2018-03-31T01:29:28.463Z,3.20
2018-03-31T01:31:54.618Z,3.40
2018-03-31T01:34:20.750Z,3.33
2018-03-31T01:36:46.954Z,2.80
2018-03-31T01:39:13.134Z,2.60
2018-03-31T01:41:40.018Z,2.10
2018-03-31T01:44:06.173Z,2.40
2018-03-31T01:46:32.330Z,2.10
2018-03-31T01:48:59.208Z,2.90
2018-03-31T01:51:25.361Z,2.72
2018-03-31T01:53:51.543Z,2.70
2018-03-31T01:56:17.671Z,3.08
2018-03-31T01:58:43.834Z,3.40
2018-03-31T02:01:10.001Z,3.10
2018-03-31T02:03:36.879Z,3.30
2018-03-31T02:06:03.042Z,3.62
2018-03-31T02:08:29.193Z,4.00
2018-03-31T02:10:55.339Z,3.40
2018-03-31T02:13:22.228Z,3.90
2018-03-31T02:15:48.372Z,3.90
2018-03-31T02:18:14.533Z,3.70
2018-03-31T02:20:41.435Z,3.70
2018-03-31T02:23:07.566Z,3.30
2018-03-31T02:25:33.758Z,3.50
2018-03-31T02:27:59.927Z,3.20
2018-03-31T02:30:26.065Z,2.90
2018-03-31T02:32:52.245Z,2.40
2018-03-31T02:35:18.410Z,2.65
2018-03-31T02:37:44.579Z,2.70
2018-03-31T02:40:11.509Z,2.40
2018-03-31T02:42:37.658Z,2.50
2018-03-31T02:45:04.542Z,2.40
2018-03-31T02:47:30.704Z,2.40
2018-03-31T02:49:56.875Z,2.50
2018-03-31T02:52:23.017Z,2.60
2018-03-31T02:54:49.175Z,2.62
2018-03-31T02:57:15.329Z,2.30
2018-03-31T02:59:41.464Z,2.60
2018-03-31T03:02:07.617Z,2.20
2018-03-31T03:04:33.774Z,2.80
2018-03-31T03:06:59.910Z,2.58
2018-03-31T03:09:26.077Z,2.70
2018-03-31T03:11:52.250Z,2.55
2018-03-31T03:14:18.400Z,2.60
2018-03-31T03:16:44.561Z,2.70
2018-03-31T03:19:10.709Z,2.80
2018-03-31T03:21:37.626Z,3.00
2018-03-31T03:24:03.794Z,2.80
2018-03-31T03:26:29.949Z,2.60
2018-03-31T03:28:56.279Z,2.95
2018-03-31T03:31:22.438Z,2.75
2018-03-31T03:33:48.573Z,2.80
2018-03-31T03:36:14.726Z,3.10
2018-03-31T03:38:41.622Z,3.20
2018-03-31T03:41:07.801Z,2.83
2018-03-31T03:43:34.731Z,3.20
2018-03-31T03:46:01.634Z,3.10
2018-03-31T03:48:27.765Z,3.15
2018-03-31T03:50:53.925Z,3.73
2018-03-31T03:53:20.075Z,3.10
2018-03-31T03:55:46.958Z,3.33
2018-03-31T03:58:13.123Z,3.60
2018-03-31T04:00:39.315Z,3.10
2018-03-31T04:03:05.443Z,3.30
2018-03-31T04:05:31.597Z,3.37
2018-03-31T04:07:57.799Z,3.00
2018-03-31T04:10:23.968Z,3.40
2018-03-31T04:12:50.134Z,3.33
2018-03-31T04:15:16.337Z,3.17
2018-03-31T04:17:43.208Z,3.47
2018-03-31T04:20:09.354Z,3.10
2018-03-31T04:22:35.505Z,3.53
2018-03-31T04:25:01.649Z,3.42
2018-03-31T04:27:27.815Z,3.80
2018-03-31T04:29:53.940Z,3.30
2018-03-31T04:32:20.118Z,3.58
2018-03-31T04:34:46.275Z,3.67
2018-03-31T04:37:12.410Z,3.47
2018-03-31T04:39:39.314Z,3.60
2018-03-31T04:42:05.527Z,3.80
2018-03-31T04:44:31.706Z,4.00
2018-03-31T04:46:57.894Z,3.45
2018-03-31T04:49:24.062Z,3.83
2018-03-31T04:51:50.246Z,3.80
2018-03-31T04:54:16.581Z,3.90
2018-03-31T04:56:42.754Z,3.67
2018-03-31T04:59:09.625Z,3.90
2018-03-31T05:01:35.814Z,4.03
2018-03-31T05:04:02.010Z,3.97
2018-03-31T05:06:28.181Z,4.35
2018-03-31T05:08:54.386Z,3.75
2018-03-31T05:11:20.542Z,4.40
2018-03-31T05:13:47.461Z,3.90
2018-03-31T05:16:13.671Z,3.95
2018-03-31T05:18:39.886Z,3.67
2018-03-31T05:21:06.051Z,4.00
2018-03-31T05:23:32.233Z,4.25
2018-03-31T05:25:58.386Z,4.20
2018-03-31T05:28:24.550Z,4.70
2018-03-31T05:33:42.682Z,3.58
2018-03-31T05:36:08.894Z,3.90
2018-03-31T05:38:35.038Z,4.00
2018-03-31T05:41:01.190Z,4.47
2018-03-31T05:43:27.347Z,4.17
2018-03-31T05:45:54.224Z,4.05
2018-03-31T05:48:20.401Z,4.12
2018-03-31T05:50:46.569Z,4.18
2018-03-31T05:53:12.716Z,4.30
2018-03-31T05:55:38.873Z,4.20
2018-03-31T05:58:05.032Z,4.18
2018-03-31T06:00:31.946Z,4.10
2018-03-31T06:02:58.114Z,3.55
2018-03-31T06:05:25.010Z,4.12
2018-03-31T06:07:51.138Z,3.90
2018-03-31T06:10:17.294Z,3.90
2018-03-31T06:12:43.449Z,3.55
2018-03-31T06:15:09.587Z,3.53
2018-03-31T06:17:35.742Z,3.10
2018-03-31T06:20:01.902Z,3.20
2018-03-31T06:22:28.040Z,3.33
2018-03-31T06:24:54.943Z,3.20
2018-03-31T06:27:21.082Z,2.95
2018-03-31T06:29:47.246Z,3.10
2018-03-31T06:32:14.150Z,3.30
2018-03-31T06:34:40.282Z,3.20
2018-03-31T06:37:06.446Z,3.70
2018-03-31T06:39:33.344Z,3.30
2018-03-31T06:41:59.475Z,3.50
2018-03-31T06:44:25.634Z,3.28
2018-03-31T06:46:51.789Z,3.40
2018-03-31T06:49:18.683Z,3.30
2018-03-31T06:51:44.846Z,2.87
2018-03-31T06:54:11.742Z,2.80
2018-03-31T06:56:37.926Z,2.70
2018-03-31T06:59:04.866Z,3.03
2018-03-31T07:01:30.994Z,2.73
2018-03-31T07:03:57.153Z,2.75
2018-03-31T07:06:23.312Z,2.53
2018-03-31T07:08:49.458Z,2.65
2018-03-31T07:11:15.626Z,2.72
2018-03-31T07:13:42.498Z,2.60
2018-03-31T07:16:08.658Z,2.35
2018-03-31T07:18:34.809Z,2.53
2018-03-31T07:21:00.945Z,2.58
2018-03-31T07:23:27.838Z,2.30
2018-03-31T07:25:53.998Z,2.40
2018-03-31T07:28:20.135Z,2.30
2018-03-31T07:30:46.297Z,2.97
2018-03-31T07:33:12.459Z,2.40
2018-03-31T07:35:38.593Z,2.33
2018-03-31T07:38:04.743Z,2.55
2018-03-31T07:40:30.872Z,3.00
2018-03-31T07:42:57.039Z,2.80
2018-03-31T07:45:23.221Z,2.92
2018-03-31T07:47:49.387Z,2.60
2018-03-31T07:50:15.542Z,2.90
2018-03-31T07:52:41.720Z,3.03
2018-03-31T07:55:08.601Z,2.60
2018-03-31T07:57:34.757Z,2.90
2018-03-31T08:00:00.917Z,3.40
2018-03-31T08:02:27.159Z,2.92
2018-03-31T08:04:54.076Z,3.28
2018-03-31T08:07:20.241Z,3.00
2018-03-31T08:09:47.167Z,3.67
2018-03-31T08:12:13.350Z,3.42
2018-03-31T08:14:39.514Z,3.37
2018-03-31T08:17:05.650Z,3.67
2018-03-31T08:19:32.554Z,3.40
2018-03-31T08:21:58.726Z,2.92
2018-03-31T08:24:24.902Z,2.87
2018-03-31T08:26:51.075Z,2.70
2018-03-31T08:29:17.235Z,2.62
2018-03-31T08:31:44.112Z,2.92
2018-03-31T08:34:10.269Z,3.47
2018-03-31T08:36:36.481Z,2.92
2018-03-31T08:39:02.652Z,2.83
2018-03-31T08:41:29.570Z,3.42
2018-03-31T08:43:55.771Z,3.45
2018-03-31T08:46:21.959Z,3.42
2018-03-31T08:48:48.912Z,3.12
2018-03-31T08:51:15.899Z,3.30
2018-03-31T08:53:42.070Z,3.22
2018-03-31T08:56:08.238Z,3.05
2018-03-31T08:58:34.439Z,3.35
2018-03-31T09:01:01.325Z,3.90
2018-03-31T09:03:27.490Z,3.70
2018-03-31T09:05:53.675Z,3.67
2018-03-31T09:08:19.836Z,3.62
2018-03-31T09:10:46.003Z,3.75
2018-03-31T09:13:12.938Z,3.55
2018-03-31T09:15:39.826Z,3.87
2018-03-31T09:18:05.987Z,3.97
2018-03-31T09:20:32.208Z,3.55
2018-03-31T09:22:58.361Z,3.80
2018-03-31T09:25:24.539Z,4.30
2018-03-31T09:27:50.703Z,4.15
2018-03-31T09:30:16.845Z,4.78
2018-03-31T09:32:43.033Z,4.32
2018-03-31T09:35:09.199Z,4.30
2018-03-31T09:37:35.338Z,4.72
2018-03-31T09:40:01.567Z,4.50
2018-03-31T09:42:27.686Z,4.10
2018-03-31T09:44:53.842Z,4.10
2018-03-31T09:47:20.749Z,4.80
2018-03-31T09:49:46.947Z,5.50
2018-03-31T09:52:13.114Z,5.10
2018-03-31T09:54:40.129Z,5.20
2018-03-31T09:57:06.301Z,5.45
2018-03-31T09:59:32.427Z,5.80
2018-03-31T10:01:58.586Z,5.10
2018-03-31T10:04:24.754Z,5.20
2018-03-31T10:06:50.911Z,5.30
2018-03-31T10:09:17.067Z,5.45
2018-03-31T10:11:43.248Z,5.40
2018-03-31T10:14:09.410Z,5.50
2018-03-31T10:16:36.335Z,5.50
2018-03-31T10:19:02.486Z,5.47
2018-03-31T10:21:29.397Z,5.83
2018-03-31T10:23:55.574Z,6.20
2018-03-31T10:26:21.732Z,6.18
2018-03-31T10:28:47.920Z,6.00
2018-03-31T10:31:14.881Z,5.80
2018-03-31T10:33:41.026Z,6.20
2018-03-31T10:36:07.182Z,6.32
2018-03-31T10:38:33.365Z,6.07
2018-03-31T10:40:59.523Z,6.20
2018-03-31T10:43:25.682Z,7.20
2018-03-31T10:45:51.822Z,7.55
2018-03-31T10:48:18.753Z,6.90
2018-03-31T10:50:44.927Z,7.20
2018-03-31T10:53:11.119Z,7.43
2018-03-31T10:55:37.287Z,7.50
2018-03-31T10:58:03.450Z,7.55
2018-03-31T11:00:29.586Z,7.72
2018-03-31T11:02:55.749Z,7.80
2018-03-31T11:05:22.651Z,8.15
2018-03-31T11:07:48.787Z,7.70
2018-03-31T11:10:14.965Z,7.73
2018-03-31T11:12:41.109Z,7.12
2018-03-31T11:15:07.278Z,8.13
2018-03-31T11:17:33.410Z,7.77
2018-03-31T11:20:00.348Z,7.75
2018-03-31T11:22:26.511Z,8.15
2018-03-31T11:24:53.398Z,7.20
2018-03-31T11:27:19.573Z,8.25
2018-03-31T11:29:45.729Z,7.93
2018-03-31T11:32:11.903Z,8.10
2018-03-31T11:34:38.076Z,7.95
2018-03-31T11:37:04.230Z,7.40
2018-03-31T11:39:30.407Z,7.75
2018-03-31T11:41:56.567Z,6.95
2018-03-31T11:44:22.702Z,5.75
2018-03-31T11:46:48.869Z,9.10
2018-03-31T11:49:15.042Z,6.62
2018-03-31T11:51:41.933Z,6.70
2018-03-31T11:54:08.147Z,6.80
2018-03-31T11:56:35.052Z,6.35
2018-03-31T12:25:50.661Z,7.00
2018-03-31T12:28:16.796Z,6.00
2018-03-31T12:30:42.969Z,6.97
2018-03-31T12:33:09.132Z,6.43
2018-03-31T12:35:36.002Z,6.45
2018-03-31T12:38:02.175Z,6.37
2018-03-31T12:40:28.334Z,5.82
2018-03-31T12:42:54.470Z,6.07
2018-03-31T12:45:20.624Z,6.95
2018-03-31T12:47:46.805Z,7.03
2018-03-31T12:50:13.698Z,5.72
2018-03-31T12:52:39.928Z,7.10
2018-03-31T12:55:06.121Z,6.25
2018-03-31T12:57:33.045Z,6.53
2018-03-31T12:59:59.198Z,6.70
2018-03-31T13:02:26.068Z,5.72
2018-03-31T13:04:52.235Z,6.62
2018-03-31T13:07:18.361Z,6.95
2018-03-31T13:09:44.521Z,6.22
2018-03-31T13:12:11.425Z,6.00
2018-03-31T13:14:37.605Z,6.95
2018-03-31T13:17:03.763Z,7.20
2018-03-31T13:19:29.921Z,6.90
2018-03-31T13:21:56.046Z,7.10
2018-03-31T13:24:22.244Z,6.43
2018-03-31T13:26:48.448Z,6.45
2018-03-31T13:29:14.583Z,5.60
2018-03-31T13:31:40.759Z,6.10
2018-03-31T13:34:06.916Z,6.70
2018-03-31T13:36:33.795Z,6.60
2018-03-31T13:38:59.963Z,6.45
2018-03-31T13:41:26.114Z,6.28
2018-03-31T13:43:52.985Z,6.65
2018-03-31T13:46:19.179Z,6.03
2018-03-31T13:48:45.334Z,6.30
2018-03-31T13:51:12.220Z,4.90
2018-03-31T13:53:38.471Z,5.37
2018-03-31T13:56:04.650Z,5.57
2018-03-31T13:58:30.785Z,6.57
2018-03-31T14:00:56.954Z,6.68
2018-03-31T14:03:23.128Z,5.85
2018-03-31T14:05:49.320Z,6.60
2018-03-31T14:08:15.491Z,6.75
2018-03-31T14:10:41.667Z,7.40
2018-03-31T14:13:07.799Z,6.60
2018-03-31T14:15:33.974Z,6.72
2018-03-31T14:18:00.147Z,6.62
2018-03-31T14:20:26.281Z,6.40
2018-03-31T14:22:52.446Z,6.55
2018-03-31T14:25:19.354Z,6.45
2018-03-31T14:27:45.502Z,6.50
2018-03-31T14:30:11.666Z,6.20
2018-03-31T14:32:37.822Z,6.93
2018-03-31T14:35:03.956Z,6.68
2018-03-31T14:37:30.123Z,6.95
2018-03-31T14:39:57.045Z,7.28
2018-03-31T14:42:23.191Z,6.25
2018-03-31T14:44:50.099Z,6.85
2018-03-31T14:47:16.298Z,5.32
2018-03-31T14:49:42.437Z,5.55
2018-03-31T14:52:08.598Z,6.30
2018-03-31T14:54:34.750Z,5.35
2018-03-31T14:57:00.928Z,5.70
2018-03-31T14:59:27.151Z,5.50
2018-03-31T15:01:53.401Z,6.03
2018-03-31T15:04:19.632Z,5.90
2018-03-31T15:06:45.812Z,8.38
2018-03-31T15:09:12.029Z,6.10
2018-03-31T15:11:38.911Z,6.78
2018-03-31T15:14:05.098Z,5.97
2018-03-31T15:16:32.019Z,6.30
2018-03-31T15:18:58.187Z,7.82
2018-03-31T15:21:25.083Z,7.25
2018-03-31T15:23:51.247Z,6.68
2018-03-31T15:26:17.377Z,6.78
2018-03-31T15:28:44.286Z,5.78
2018-03-31T15:31:10.413Z,6.78
2018-03-31T15:33:36.618Z,7.85
2018-03-31T15:36:02.783Z,7.82
2018-03-31T15:38:28.926Z,8.18
2018-03-31T15:40:55.109Z,6.25
2018-03-31T15:43:22.118Z,5.45
2018-03-31T15:45:49.022Z,5.45
2018-03-31T15:48:15.193Z,5.43
2018-03-31T15:50:42.062Z,6.28
2018-03-31T15:53:08.215Z,5.80
2018-03-31T15:55:34.352Z,5.43
2018-03-31T15:58:00.505Z,5.60
2018-03-31T16:00:26.647Z,5.55
2018-03-31T16:02:53.531Z,5.00
2018-03-31T16:05:19.711Z,5.65
2018-03-31T16:07:45.863Z,5.20
2018-03-31T16:10:12.734Z,5.53
2018-03-31T16:12:38.903Z,4.80
2018-03-31T16:15:05.069Z,4.35
2018-03-31T16:17:31.949Z,4.60
2018-03-31T16:19:58.114Z,5.10
2018-03-31T16:22:25.021Z,5.57
2018-03-31T16:24:51.162Z,5.10
2018-03-31T16:27:17.325Z,4.55
2018-03-31T16:29:44.206Z,4.35
2018-03-31T16:32:10.377Z,5.00
2018-03-31T16:34:36.560Z,5.20
2018-03-31T16:37:02.719Z,5.30
2018-03-31T16:39:28.877Z,5.35
2018-03-31T16:41:55.043Z,5.10
2018-03-31T16:44:21.168Z,6.10
2018-03-31T16:46:47.328Z,6.32
2018-03-31T16:49:13.511Z,6.30
2018-03-31T16:51:40.420Z,6.45
2018-03-31T16:54:06.588Z,6.60
2018-03-31T16:56:33.511Z,7.80
2018-03-31T16:58:59.668Z,7.03
2018-03-31T17:01:25.839Z,6.80
2018-03-31T17:03:51.981Z,7.70
2018-03-31T17:06:18.206Z,8.30
2018-03-31T17:08:44.386Z,7.87
2018-03-31T17:11:10.547Z,8.13
2018-03-31T17:13:36.734Z,8.00
2018-03-31T17:16:02.895Z,7.43
2018-03-31T17:18:29.050Z,7.50
2018-03-31T17:20:55.187Z,7.78
2018-03-31T17:23:21.338Z,7.62
2018-03-31T17:25:48.240Z,8.00
2018-03-31T17:28:14.370Z,7.50
2018-03-31T17:30:40.521Z,8.45
2018-03-31T17:33:06.690Z,7.85
2018-03-31T17:35:32.848Z,7.97
2018-03-31T17:37:59.004Z,8.30
2018-03-31T17:40:25.162Z,8.25
2018-03-31T17:42:52.095Z,9.20
2018-03-31T17:45:18.208Z,14.48
2018-03-31T17:47:44.371Z,14.90
2018-03-31T17:50:10.547Z,15.50
2018-03-31T17:52:36.729Z,16.60
2018-03-31T17:55:02.891Z,16.07
2018-03-31T17:57:29.035Z,15.70
2018-03-31T17:59:55.221Z,15.40
2018-03-31T18:02:21.442Z,12.43
2018-03-31T18:04:47.574Z,10.98
2018-03-31T18:16:58.968Z,9.80
2018-03-31T18:19:25.107Z,9.70
2018-03-31T18:21:51.259Z,9.60
2018-03-31T18:24:18.158Z,12.82
2018-03-31T18:26:44.290Z,17.75
2018-03-31T18:29:10.441Z,28.73
2018-03-31T18:38:55.695Z,33.20
2018-03-31T18:41:21.834Z,37.97
2018-03-31T18:43:48.731Z,32.63
2018-03-31T18:46:14.855Z,31.45
2018-03-31T18:48:41.010Z,30.60
2018-03-31T18:51:07.172Z,40.97
2018-03-31T18:53:33.331Z,46.97
2018-03-31T18:55:59.489Z,57.15
2018-03-31T18:58:25.669Z,62.40
2018-03-31T19:00:51.833Z,59.38
2018-03-31T19:03:17.996Z,58.70
2018-03-31T19:05:44.890Z,58.25
2018-03-31T19:08:11.028Z,62.03
2018-03-31T19:10:37.190Z,48.58
2018-03-31T19:13:04.143Z,45.88
2018-03-31T19:15:31.040Z,42.83
2018-03-31T19:17:57.231Z,38.38
2018-03-31T19:20:23.372Z,31.48
2018-03-31T19:22:49.544Z,29.48
2018-03-31T19:25:21.892Z,35.47
2018-03-31T19:27:48.065Z,28.90
2018-03-31T19:30:14.190Z,26.52
2018-03-31T19:32:40.345Z,20.95
2018-03-31T19:35:06.529Z,18.58
2018-03-31T19:37:32.661Z,21.67
2018-03-31T19:39:58.810Z,20.27
2018-03-31T19:42:25.712Z,21.95
2018-03-31T19:44:51.851Z,21.50
2018-03-31T19:47:18.002Z,24.17
2018-03-31T19:49:44.186Z,21.80
2018-03-31T19:52:10.339Z,31.30
2018-03-31T19:54:36.471Z,30.12
2018-03-31T19:57:02.632Z,30.52
2018-03-31T19:59:29.525Z,31.62
2018-03-31T20:01:55.657Z,34.33
2018-03-31T20:04:21.814Z,30.30
2018-03-31T20:06:47.977Z,27.45
2018-03-31T20:09:14.112Z,22.25
2018-03-31T20:11:40.278Z,19.62
2018-03-31T20:14:06.458Z,19.08
2018-03-31T20:16:32.616Z,19.17
2018-03-31T20:18:58.770Z,19.15
2018-03-31T20:21:24.907Z,20.75
2018-03-31T20:23:51.061Z,28.95
2018-03-31T20:26:17.935Z,36.63
2018-03-31T20:28:44.094Z,35.20
2018-03-31T20:31:10.313Z,26.05
2018-03-31T20:33:36.443Z,27.48
2018-03-31T20:36:02.612Z,22.27
2018-03-31T20:38:29.526Z,21.60
2018-03-31T20:40:55.663Z,21.12
2018-03-31T20:43:22.562Z,21.83
2018-03-31T20:45:48.724Z,19.58
2018-03-31T20:48:14.858Z,20.58
2018-03-31T20:50:41.016Z,19.77
2018-03-31T20:53:07.915Z,20.42
2018-03-31T20:55:34.049Z,20.02
2018-03-31T20:58:00.197Z,19.23
2018-03-31T21:00:26.359Z,19.85
2018-03-31T21:02:53.238Z,21.05
2018-03-31T21:05:19.390Z,25.23
2018-03-31T21:07:45.520Z,24.48
2018-03-31T21:10:11.692Z,26.40
2018-03-31T21:12:37.826Z,27.87
2018-03-31T21:15:04.005Z,25.17
2018-03-31T21:17:30.163Z,26.80
2018-03-31T21:19:57.082Z,26.10
2018-03-31T21:22:23.242Z,28.40
2018-03-31T21:24:50.155Z,28.10
2018-03-31T21:27:16.319Z,31.37
2018-03-31T21:29:43.215Z,32.03
2018-03-31T21:32:09.380Z,32.78
2018-03-31T21:34:36.262Z,33.80
2018-03-31T21:37:02.454Z,35.88
2018-03-31T21:39:29.355Z,33.35
2018-03-31T21:41:55.501Z,35.40
2018-03-31T21:44:21.655Z,36.13
2018-03-31T21:46:48.550Z,36.50
2018-03-31T21:49:14.684Z,35.97
2018-03-31T21:51:40.847Z,32.58
2018-03-31T21:54:07.002Z,32.97
2018-03-31T21:56:33.891Z,31.85
2018-03-31T21:59:00.063Z,30.92
2018-03-31T22:01:26.966Z,29.55
2018-03-31T22:03:53.094Z,26.62
2018-03-31T22:06:19.260Z,26.52
2018-03-31T22:08:46.160Z,28.30
2018-03-31T22:11:12.290Z,28.15
2018-03-31T22:13:44.656Z,29.05
2018-03-31T22:16:10.853Z,31.42
2018-03-31T22:18:37.806Z,32.40
2018-03-31T22:21:04.009Z,31.70
2018-03-31T22:23:30.920Z,32.55
2018-03-31T22:25:57.102Z,32.65
2018-03-31T22:28:23.974Z,33.80
2018-03-31T22:30:50.111Z,33.20
2018-03-31T22:33:16.268Z,32.97
2018-03-31T22:35:42.426Z,32.92
2018-03-31T22:38:09.297Z,34.40
2018-03-31T22:40:35.463Z,33.05
2018-03-31T22:43:01.606Z,32.60
2018-03-31T22:45:27.777Z,33.78
2018-03-31T22:47:53.915Z,33.85
2018-03-31T22:50:20.086Z,33.00
2018-03-31T22:52:46.241Z,31.83
2018-03-31T22:55:13.143Z,30.77
2018-03-31T22:57:39.309Z,29.87
2018-03-31T23:00:06.215Z,29.95
2018-03-31T23:02:32.362Z,29.17
2018-03-31T23:04:58.517Z,27.50
2018-03-31T23:07:25.386Z,25.77
2018-03-31T23:09:51.591Z,26.97
2018-03-31T23:12:18.430Z,25.75
2018-03-31T23:14:45.347Z,25.27
2018-03-31T23:17:11.520Z,25.10
2018-03-31T23:19:38.441Z,25.45
2018-03-31T23:22:05.385Z,24.37
2018-03-31T23:24:31.558Z,24.08
2018-03-31T23:26:57.690Z,23.08
2018-03-31T23:29:23.847Z,22.98
2018-03-31T23:31:50.003Z,22.83
2018-03-31T23:34:16.882Z,23.40
2018-03-31T23:36:43.047Z,23.20
2018-03-31T23:39:09.199Z,23.58
2018-03-31T23:41:35.331Z,22.60
2018-03-31T23:44:01.489Z,22.50
2018-03-31T23:46:27.649Z,22.37
2018-03-31T23:48:53.825Z,21.00
2018-03-31T23:51:20.730Z,19.23
2018-03-31T23:53:46.868Z,19.67
2018-03-31T23:56:13.033Z,18.80
2018-03-31T23:58:39.918Z,19.17
